Time;durP1;ratioP1;P1;durP2;ratioP2;P2;SDS_P1;SDS_P2;PMS_P1;PMS_P2;Temp;Humidity;BMP_temperature;BMP_pressure;BME280_temperature;BME280_humidity;BME280_pressure;Samples;Min_cycle;Max_cycle;Signal;HPM_P1;HPM_P2
2023/05/10 00:00:53;;;;;;;3.00;2.57;;;16.10;95.70;;;;;;4815449;29;20259;-55
2023/05/10 00:03:22;;;;;;;3.93;2.63;;;16.00;95.90;;;;;;4820790;29;20727;-54
2023/05/10 00:05:50;;;;;;;6.63;2.60;;;16.00;96.10;;;;;;4824883;29;20308;-55
2023/05/10 00:08:18;;;;;;;4.50;2.50;;;15.90;96.10;;;;;;4826106;29;20311;-54
2023/05/10 00:10:46;;;;;;;5.10;2.63;;;15.90;96.20;;;;;;4825998;29;20697;-54
2023/05/10 00:13:14;;;;;;;3.43;2.80;;;15.90;96.20;;;;;;4826397;29;20714;-55
2023/05/10 00:15:44;;;;;;;4.70;2.70;;;16.00;96.90;;;;;;4825842;29;20574;-53
2023/05/10 00:18:12;;;;;;;4.57;2.67;;;15.90;96.50;;;;;;4826518;29;20697;-55
2023/05/10 00:20:40;;;;;;;3.03;2.67;;;15.80;96.70;;;;;;4833458;29;20738;-54
2023/05/10 00:23:08;;;;;;;3.57;2.70;;;15.80;97.50;;;;;;4836654;29;20246;-55
2023/05/10 00:25:36;;;;;;;5.13;3.37;;;15.80;97.00;;;;;;4843721;29;20232;-54
2023/05/10 00:28:05;;;;;;;5.13;3.00;;;15.70;97.20;;;;;;4819774;29;20757;-55
2023/05/10 00:30:33;;;;;;;4.40;2.80;;;15.70;97.50;;;;;;4805925;29;20270;-55
2023/05/10 00:33:03;;;;;;;4.43;3.03;;;15.60;97.60;;;;;;4825235;29;20257;-55
2023/05/10 00:35:32;;;;;;;5.13;3.17;;;15.70;98.40;;;;;;4825427;29;20228;-55
2023/05/10 00:38:00;;;;;;;3.67;2.90;;;15.70;98.40;;;;;;4808647;29;20235;-55
2023/05/10 00:40:28;;;;;;;3.00;2.70;;;15.60;98.30;;;;;;4806960;29;20247;-55
2023/05/10 00:43:01;;;;;;;3.63;2.90;;;15.70;99.90;;;;;;4806315;29;20254;-55
2023/05/10 00:45:29;;;;;;;4.80;3.10;;;15.60;98.40;;;;;;4807381;29;20285;-55
2023/05/10 00:47:58;;;;;;;2.87;2.60;;;15.50;98.70;;;;;;4815952;29;20578;-55
2023/05/10 00:50:27;;;;;;;4.53;3.33;;;15.50;99.10;;;;;;4830617;29;20226;-53
2023/05/10 00:52:56;;;;;;;3.93;2.80;;;15.40;99.10;;;;;;4835335;29;20685;-53
2023/05/10 00:55:24;;;;;;;3.97;3.00;;;15.40;99.90;;;;;;4842512;29;20231;-55
2023/05/10 00:57:53;;;;;;;2.90;2.60;;;15.30;99.40;;;;;;4814770;29;20237;-56
2023/05/10 01:00:21;;;;;;;6.00;3.20;;;15.30;99.50;;;;;;4824949;29;20245;-55
2023/05/10 01:02:50;;;;;;;3.27;2.80;;;15.30;99.90;;;;;;4825309;29;20232;-55
2023/05/10 01:05:19;;;;;;;3.20;2.67;;;15.20;99.90;;;;;;4825268;29;20232;-55
2023/05/10 01:07:48;;;;;;;3.30;3.00;;;15.20;99.90;;;;;;4825551;29;20247;-55
2023/05/10 01:10:17;;;;;;;4.20;3.10;;;15.20;99.90;;;;;;4825015;29;20248;-55
2023/05/10 01:12:47;;;;;;;5.17;3.10;;;15.10;99.90;;;;;;4823560;29;20240;-55
2023/05/10 01:15:17;;;;;;;3.97;3.30;;;15.00;99.90;;;;;;4835995;29;20236;-55
2023/05/10 01:17:48;;;;;;;3.33;3.00;;;15.00;99.90;;;;;;4836973;29;20251;-55
2023/05/10 01:20:16;;;;;;;4.07;3.17;;;15.10;99.90;;;;;;4835615;29;20593;-55
2023/05/10 01:23:15;;;;;;;3.80;2.97;;;15.10;99.90;;;;;;4833205;29;20251;-55
2023/05/10 01:26:25;;;;;;;3.90;2.83;;;15.10;99.90;;;;;;4840091;29;20220;-55
2023/05/10 01:29:25;;;;;;;5.47;2.83;;;15.00;99.90;;;;;;4836746;29;20762;-55
2023/05/10 01:32:15;;;;;;;3.67;2.90;;;15.10;99.90;;;;;;4833687;29;20254;-54
2023/05/10 01:34:54;;;;;;;4.27;3.00;;;15.10;99.90;;;;;;4840827;29;20228;-55
2023/05/10 01:37:28;;;;;;;3.80;2.93;;;15.00;99.90;;;;;;4825296;29;20699;-53
2023/05/10 01:40:03;;;;;;;3.47;2.80;;;15.00;99.90;;;;;;4824783;29;20235;-56
2023/05/10 01:42:41;;;;;;;4.33;2.87;;;15.10;99.90;;;;;;4824666;29;20238;-55
2023/05/10 01:45:17;;;;;;;4.10;3.70;;;14.90;99.90;;;;;;4823488;29;20242;-54
2023/05/10 01:47:55;;;;;;;4.23;2.93;;;14.90;99.90;;;;;;4825358;29;20238;-55
2023/05/10 01:50:28;;;;;;;4.67;2.80;;;14.90;99.90;;;;;;4834764;29;20219;-54
2023/05/10 01:52:58;;;;;;;3.10;2.80;;;14.90;99.90;;;;;;4833570;29;20302;-53
2023/05/10 01:55:31;;;;;;;4.57;3.00;;;14.90;99.90;;;;;;4841968;29;20641;-54
2023/05/10 01:58:03;;;;;;;4.13;2.70;;;14.80;99.90;;;;;;4842608;29;20224;-55
2023/05/10 02:00:33;;;;;;;5.27;2.87;;;14.90;99.90;;;;;;4840654;29;21193;-56
2023/05/10 02:03:06;;;;;;;3.10;2.73;;;14.90;99.90;;;;;;4825061;29;20228;-55
2023/05/10 02:05:35;;;;;;;3.23;2.93;;;14.90;99.90;;;;;;4824329;29;20236;-56
2023/05/10 02:08:06;;;;;;;3.43;2.90;;;14.80;99.90;;;;;;4824411;29;20292;-55
2023/05/10 02:10:38;;;;;;;3.57;2.77;;;14.80;99.90;;;;;;4823271;29;20236;-55
2023/05/10 02:13:08;;;;;;;5.90;3.10;;;14.80;99.90;;;;;;4823057;29;20231;-55
2023/05/10 02:15:37;;;;;;;3.57;2.97;;;14.70;99.90;;;;;;4822925;29;20261;-54
2023/05/10 02:18:07;;;;;;;6.67;3.07;;;14.70;99.90;;;;;;4827623;29;20235;-53
2023/05/10 02:20:37;;;;;;;3.43;2.83;;;14.60;99.90;;;;;;4832433;29;20742;-55
2023/05/10 02:23:06;;;;;;;4.60;3.03;;;14.70;99.90;;;;;;4824702;29;20232;-55
2023/05/10 02:25:34;;;;;;;4.63;3.20;;;14.60;99.90;;;;;;4824044;29;20716;-55
2023/05/10 02:28:05;;;;;;;5.07;3.30;;;14.50;99.90;;;;;;4824014;29;20330;-54
2023/05/10 02:30:34;;;;;;;3.43;2.87;;;14.50;99.90;;;;;;4823634;29;20248;-56
2023/05/10 02:33:04;;;;;;;4.30;3.30;;;14.40;99.90;;;;;;4823934;29;20234;-55
2023/05/10 02:35:35;;;;;;;4.10;3.23;;;14.40;99.90;;;;;;4823856;29;20693;-56
2023/05/10 02:38:05;;;;;;;3.63;3.20;;;14.30;99.90;;;;;;4824212;29;20274;-55
2023/05/10 02:40:34;;;;;;;5.40;3.10;;;14.20;99.90;;;;;;4823721;29;20271;-55
2023/05/10 02:43:04;;;;;;;5.57;3.20;;;14.30;99.90;;;;;;4824052;29;20334;-55
2023/05/10 02:45:36;;;;;;;4.90;3.27;;;14.30;99.90;;;;;;4824076;29;20231;-55
2023/05/10 02:48:04;;;;;;;3.40;3.10;;;14.20;99.90;;;;;;4827127;29;20727;-55
2023/05/10 02:50:36;;;;;;;5.80;3.00;;;14.20;99.90;;;;;;4832561;29;20227;-55
2023/05/10 02:53:12;;;;;;;4.30;3.77;;;14.20;99.90;;;;;;4822966;29;20254;-54
2023/05/10 02:55:42;;;;;;;5.30;3.30;;;14.10;99.90;;;;;;4823787;29;20347;-55
2023/05/10 02:58:11;;;;;;;3.70;3.30;;;14.10;99.90;;;;;;4823998;29;20252;-55
2023/05/10 03:00:39;;;;;;;4.13;3.53;;;14.00;99.90;;;;;;4823146;29;20244;-56
2023/05/10 03:03:08;;;;;;;4.13;3.50;;;14.00;99.90;;;;;;4817527;29;20220;-55
2023/05/10 03:05:37;;;;;;;3.70;3.00;;;14.00;99.90;;;;;;4827126;29;20232;-55
2023/05/10 03:08:06;;;;;;;5.03;3.30;;;14.00;99.90;;;;;;4827267;29;20254;-55
2023/05/10 03:10:40;;;;;;;6.17;3.53;;;14.00;99.90;;;;;;4825976;29;20232;-55
2023/05/10 03:13:17;;;;;;;5.53;3.20;;;14.00;99.90;;;;;;4825942;29;20235;-56
2023/05/10 03:15:57;;;;;;;4.77;3.30;;;13.90;99.90;;;;;;4826970;29;20232;-55
2023/05/10 03:18:41;;;;;;;3.87;3.50;;;13.90;99.90;;;;;;4832909;29;20226;-54
2023/05/10 03:21:13;;;;;;;3.63;3.30;;;13.80;99.90;;;;;;4832950;29;20239;-55
2023/05/10 03:23:45;;;;;;;5.00;3.67;;;13.80;99.90;;;;;;4837502;29;20238;-55
2023/05/10 03:26:20;;;;;;;4.10;3.53;;;13.80;99.90;;;;;;4843211;29;20245;-55
2023/05/10 03:28:49;;;;;;;5.13;3.83;;;13.80;99.90;;;;;;4822734;29;20285;-54
2023/05/10 03:31:19;;;;;;;3.80;3.40;;;13.80;99.90;;;;;;4820383;29;20250;-55
2023/05/10 03:33:48;;;;;;;3.90;3.50;;;13.70;99.90;;;;;;4825130;29;20239;-55
2023/05/10 03:36:21;;;;;;;5.43;3.70;;;13.70;99.90;;;;;;4825511;29;20235;-54
2023/05/10 03:38:50;;;;;;;5.73;3.40;;;13.70;99.90;;;;;;4825371;29;20728;-54
2023/05/10 03:41:18;;;;;;;5.17;3.23;;;13.60;99.90;;;;;;4825651;29;20262;-55
2023/05/10 03:43:46;;;;;;;5.47;3.63;;;13.60;99.90;;;;;;4840509;29;20309;-55
2023/05/10 03:46:14;;;;;;;5.87;3.60;;;13.60;99.90;;;;;;4826557;29;20314;-55
2023/05/10 03:48:42;;;;;;;5.37;3.60;;;13.60;99.90;;;;;;4832526;29;20239;-55
2023/05/10 03:51:10;;;;;;;3.93;3.43;;;13.60;99.90;;;;;;4835889;29;20231;-55
2023/05/10 03:53:41;;;;;;;6.03;3.50;;;13.60;99.90;;;;;;4826983;29;20232;-54
2023/05/10 03:56:09;;;;;;;3.70;3.27;;;13.50;99.90;;;;;;4825102;29;20236;-55
2023/05/10 03:58:37;;;;;;;4.63;3.40;;;13.50;99.90;;;;;;4826179;29;20302;-53
2023/05/10 04:01:05;;;;;;;4.37;3.60;;;13.50;99.90;;;;;;4839923;29;20247;-54
2023/05/10 04:03:35;;;;;;;4.17;3.50;;;13.50;99.90;;;;;;4826111;29;20232;-55
2023/05/10 04:06:03;;;;;;;5.87;3.53;;;13.60;99.90;;;;;;4826227;29;20243;-54
2023/05/10 04:08:33;;;;;;;6.73;3.70;;;13.60;99.90;;;;;;4824804;29;20696;-54
2023/05/10 04:11:09;;;;;;;4.27;3.90;;;13.60;99.90;;;;;;4824846;29;20270;-55
2023/05/10 04:13:38;;;;;;;7.33;3.70;;;13.60;99.90;;;;;;4826246;29;20239;-55
2023/05/10 04:16:06;;;;;;;6.50;3.87;;;13.60;99.90;;;;;;4816890;29;20228;-55
2023/05/10 04:18:34;;;;;;;4.90;3.60;;;13.50;99.90;;;;;;4827064;29;20237;-56
2023/05/10 04:21:02;;;;;;;4.53;3.57;;;13.60;99.90;;;;;;4834411;29;20265;-55
2023/05/10 04:23:30;;;;;;;4.77;3.77;;;13.60;99.90;;;;;;4836440;29;20245;-55
2023/05/10 04:26:02;;;;;;;6.60;3.90;;;13.60;99.90;;;;;;4844498;29;20232;-55
2023/05/10 04:28:31;;;;;;;4.83;3.67;;;13.60;99.90;;;;;;4830040;29;20240;-53
2023/05/10 04:31:03;;;;;;;4.63;3.83;;;13.50;99.90;;;;;;4825830;29;20598;-54
2023/05/10 04:33:31;;;;;;;5.57;4.07;;;13.50;99.90;;;;;;4825657;29;20236;-54
2023/05/10 04:36:01;;;;;;;6.83;3.40;;;13.50;99.90;;;;;;4825941;29;20304;-55
2023/05/10 04:38:30;;;;;;;5.53;3.50;;;13.60;99.90;;;;;;4825828;29;20715;-55
2023/05/10 04:41:06;;;;;;;4.33;3.60;;;13.70;99.90;;;;;;4825512;29;20247;-56
2023/05/10 04:43:35;;;;;;;4.40;3.40;;;13.80;99.90;;;;;;4825486;29;20254;-55
2023/05/10 04:46:04;;;;;;;5.77;3.73;;;13.90;99.90;;;;;;4825835;29;20247;-55
2023/05/10 04:48:32;;;;;;;5.10;3.67;;;13.80;99.90;;;;;;4832223;29;20230;-55
2023/05/10 04:51:00;;;;;;;6.20;3.70;;;13.90;99.90;;;;;;4833932;29;20680;-55
2023/05/10 04:53:29;;;;;;;4.60;3.80;;;13.90;99.90;;;;;;4835980;29;20231;-54
2023/05/10 04:55:57;;;;;;;5.57;3.73;;;14.10;99.90;;;;;;4843979;29;20260;-54
2023/05/10 04:58:25;;;;;;;8.23;4.07;;;14.00;99.90;;;;;;4840906;29;20231;-53
2023/05/10 05:00:55;;;;;;;4.00;3.70;;;14.10;99.90;;;;;;4824613;29;20304;-54
2023/05/10 05:03:23;;;;;;;4.30;3.90;;;14.10;99.90;;;;;;4825670;29;20246;-55
2023/05/10 05:05:51;;;;;;;4.87;3.73;;;14.10;99.90;;;;;;4825550;29;20569;-55
2023/05/10 05:08:20;;;;;;;5.77;3.67;;;14.20;99.90;;;;;;4817806;29;20751;-55
2023/05/10 05:10:50;;;;;;;5.80;4.00;;;14.30;99.90;;;;;;4809147;29;20684;-55
2023/05/10 05:13:18;;;;;;;8.23;4.17;;;14.20;99.90;;;;;;4809233;29;20232;-55
2023/05/10 05:15:47;;;;;;;5.07;3.40;;;14.40;99.90;;;;;;4809901;29;20236;-55
2023/05/10 05:18:16;;;;;;;4.10;3.43;;;14.60;99.90;;;;;;4808259;29;20646;-52
2023/05/10 05:20:44;;;;;;;4.50;3.53;;;14.70;99.90;;;;;;4810423;29;20811;-55
2023/05/10 05:23:12;;;;;;;4.13;3.67;;;14.80;99.90;;;;;;4811844;29;20611;-53
2023/05/10 05:25:41;;;;;;;5.50;4.00;;;14.90;99.90;;;;;;4810828;29;20236;-54
2023/05/10 05:28:09;;;;;;;6.00;3.63;;;14.90;99.90;;;;;;4809213;29;20885;-52
2023/05/10 05:30:37;;;;;;;5.57;3.43;;;15.00;99.90;;;;;;4810267;29;20243;-54
2023/05/10 05:33:06;;;;;;;4.00;3.17;;;15.20;99.90;;;;;;4810667;29;20235;-55
2023/05/10 05:35:35;;;;;;;5.53;3.77;;;15.30;99.90;;;;;;4810444;29;20239;-54
2023/05/10 05:38:03;;;;;;;5.33;3.50;;;15.50;99.90;;;;;;4810232;29;20243;-54
2023/05/10 05:40:31;;;;;;;4.40;3.60;;;15.40;99.90;;;;;;4809170;29;20232;-55
2023/05/10 05:42:59;;;;;;;5.00;3.53;;;15.30;99.90;;;;;;4810579;29;20286;-53
2023/05/10 05:45:28;;;;;;;4.30;3.90;;;15.30;99.90;;;;;;4810916;29;20263;-55
2023/05/10 05:47:57;;;;;;;4.70;3.70;;;15.30;99.90;;;;;;4811239;29;20289;-55
2023/05/10 05:50:25;;;;;;;4.50;4.10;;;15.30;99.90;;;;;;4808530;29;20228;-53
2023/05/10 05:52:55;;;;;;;4.63;3.70;;;15.50;99.90;;;;;;4810757;29;20232;-54
2023/05/10 05:55:23;;;;;;;5.47;3.90;;;15.60;99.90;;;;;;4810427;29;20236;-52
2023/05/10 05:57:52;;;;;;;7.10;4.27;;;15.70;99.90;;;;;;4810299;29;20594;-55
2023/05/10 06:00:21;;;;;;;5.07;4.00;;;15.70;99.90;;;;;;4808325;29;20245;-54
2023/05/10 06:02:49;;;;;;;6.33;3.80;;;15.70;99.90;;;;;;4810087;29;20240;-54
2023/05/10 06:05:17;;;;;;;4.77;3.90;;;15.80;99.90;;;;;;4810554;29;20574;-55
2023/05/10 06:07:45;;;;;;;5.23;3.87;;;15.70;99.90;;;;;;4809095;29;20319;-54
2023/05/10 06:10:15;;;;;;;5.67;3.73;;;15.70;99.90;;;;;;4804570;29;20652;-54
2023/05/10 06:12:43;;;;;;;7.80;4.33;;;15.60;99.90;;;;;;4809905;29;20228;-53
2023/05/10 06:15:12;;;;;;;6.33;4.03;;;15.50;99.90;;;;;;4810460;29;20736;-54
2023/05/10 06:17:40;;;;;;;5.10;3.70;;;15.40;99.90;;;;;;4811039;29;20616;-55
2023/05/10 06:20:09;;;;;;;4.80;4.30;;;15.20;99.90;;;;;;4805946;29;20251;-55
2023/05/10 06:22:37;;;;;;;4.90;3.83;;;15.20;99.90;;;;;;4809565;29;20259;-53
2023/05/10 06:25:07;;;;;;;5.37;3.73;;;15.20;99.90;;;;;;4811288;29;20245;-54
2023/05/10 06:27:36;;;;;;;5.63;4.03;;;15.20;99.90;;;;;;4810657;29;20744;-55
2023/05/10 06:30:05;;;;;;;5.90;4.00;;;15.10;99.90;;;;;;4806443;29;21497;-54
2023/05/10 06:32:40;;;;;;;5.40;4.00;;;15.10;99.90;;;;;;4809655;29;20346;-55
2023/05/10 06:35:09;;;;;;;4.40;4.00;;;15.10;99.90;;;;;;4810338;29;20781;-54
2023/05/10 06:37:38;;;;;;;7.60;3.93;;;15.10;99.90;;;;;;4811273;29;20330;-52
2023/05/10 06:40:07;;;;;;;4.93;4.33;;;15.10;99.90;;;;;;4807218;29;20331;-52
2023/05/10 06:42:37;;;;;;;5.37;3.90;;;15.00;99.90;;;;;;4807998;29;20231;-53
2023/05/10 06:45:06;;;;;;;5.87;4.33;;;15.00;99.90;;;;;;4809470;29;21052;-54
2023/05/10 06:47:35;;;;;;;4.97;4.10;;;15.00;99.90;;;;;;4808375;29;20267;-53
2023/05/10 06:50:07;;;;;;;5.30;3.73;;;15.10;99.90;;;;;;4805960;29;20236;-54
2023/05/10 06:52:35;;;;;;;7.20;4.03;;;15.00;99.90;;;;;;4807850;29;20323;-55
2023/05/10 06:55:04;;;;;;;5.60;3.93;;;15.00;99.90;;;;;;4809616;29;20292;-54
2023/05/10 06:57:32;;;;;;;5.20;4.00;;;15.00;99.90;;;;;;4808163;29;20247;-55
2023/05/10 07:00:03;;;;;;;5.13;3.63;;;15.10;99.90;;;;;;4806184;29;20231;-52
2023/05/10 07:02:32;;;;;;;5.60;4.07;;;15.00;99.90;;;;;;4806876;29;20746;-55
2023/05/10 07:05:00;;;;;;;5.47;4.10;;;15.00;99.90;;;;;;4809096;29;20772;-53
2023/05/10 07:07:31;;;;;;;4.30;3.90;;;14.80;99.90;;;;;;4808156;29;20263;-53
2023/05/10 07:09:59;;;;;;;4.80;4.27;;;14.90;99.90;;;;;;4805720;29;20548;-53
2023/05/10 07:12:27;;;;;;;6.37;4.30;;;14.90;99.90;;;;;;4807789;29;20878;-55
2023/05/10 07:14:55;;;;;;;4.50;4.10;;;14.80;99.90;;;;;;4809239;29;20228;-55
2023/05/10 07:17:25;;;;;;;5.03;4.53;;;14.70;99.90;;;;;;4810298;29;20716;-53
2023/05/10 07:19:53;;;;;;;4.50;4.07;;;14.70;99.90;;;;;;4807124;29;20228;-54
2023/05/10 07:22:21;;;;;;;7.87;4.40;;;14.60;99.90;;;;;;4808910;29;20265;-54
2023/05/10 07:24:49;;;;;;;4.10;3.80;;;14.60;99.90;;;;;;4809819;29;20726;-51
2023/05/10 07:27:17;;;;;;;5.27;4.40;;;14.60;99.90;;;;;;4810329;29;20243;-54
2023/05/10 07:29:45;;;;;;;6.73;4.40;;;14.60;99.90;;;;;;4806713;29;20258;-53
2023/05/10 07:32:13;;;;;;;5.10;4.60;;;14.50;99.90;;;;;;4809486;29;20252;-54
2023/05/10 07:34:43;;;;;;;6.13;4.80;;;14.40;99.90;;;;;;4810123;29;20240;-55
2023/05/10 07:37:11;;;;;;;7.07;4.57;;;14.30;99.90;;;;;;4810649;29;20339;-53
2023/05/10 07:39:39;;;;;;;5.60;5.00;;;14.30;99.90;;;;;;4807205;29;20609;-54
2023/05/10 07:42:08;;;;;;;5.47;4.73;;;14.20;99.90;;;;;;4809539;29;20232;-53
2023/05/10 07:44:36;;;;;;;4.87;4.33;;;14.20;99.90;;;;;;4810043;29;20347;-54
2023/05/10 07:47:04;;;;;;;5.30;4.80;;;14.20;99.90;;;;;;4810538;29;20743;-55
2023/05/10 07:49:32;;;;;;;5.20;4.70;;;14.10;99.90;;;;;;4806246;29;20722;-55
2023/05/10 07:52:01;;;;;;;6.03;4.87;;;14.10;99.90;;;;;;4811673;29;20720;-53
2023/05/10 07:54:29;;;;;;;5.73;5.10;;;14.00;99.90;;;;;;4812897;29;20229;-55
2023/05/10 07:56:58;;;;;;;6.57;4.63;;;14.00;99.90;;;;;;4813054;29;20600;-55
2023/05/10 07:59:26;;;;;;;5.83;5.00;;;13.90;99.90;;;;;;4809847;29;20240;-54
2023/05/10 08:01:54;;;;;;;6.57;5.27;;;13.90;99.90;;;;;;4812121;29;20231;-54
2023/05/10 08:04:22;;;;;;;6.83;5.30;;;13.90;99.90;;;;;;4812974;29;20244;-54
2023/05/10 08:06:50;;;;;;;7.33;6.03;;;13.90;99.90;;;;;;4813271;29;20247;-51
2023/05/10 08:09:23;;;;;;;6.27;5.53;;;13.90;99.90;;;;;;4810047;29;20239;-53
2023/05/10 08:11:51;;;;;;;6.00;5.50;;;14.00;99.90;;;;;;4812478;29;20743;-53
2023/05/10 08:14:20;;;;;;;7.70;7.00;;;14.00;99.90;;;;;;4813314;29;20792;-53
2023/05/10 08:16:48;;;;;;;7.40;6.13;;;14.00;99.90;;;;;;4812471;29;20232;-55
2023/05/10 08:19:18;;;;;;;7.30;6.57;;;14.00;99.90;;;;;;4808400;29;20270;-54
2023/05/10 08:21:47;;;;;;;7.83;6.10;;;14.10;99.90;;;;;;4811832;29;20348;-53
2023/05/10 08:24:15;;;;;;;7.80;6.53;;;14.00;99.90;;;;;;4812292;29;20247;-54
2023/05/10 08:26:44;;;;;;;8.30;6.80;;;14.00;99.90;;;;;;4811338;29;20237;-55
2023/05/10 08:29:12;;;;;;;7.27;6.37;;;14.00;99.90;;;;;;4808452;29;20240;-53
2023/05/10 08:31:40;;;;;;;7.33;6.63;;;14.00;99.90;;;;;;4809709;29;20228;-54
2023/05/10 08:34:08;;;;;;;7.10;6.40;;;14.00;99.90;;;;;;4809777;29;20252;-55
2023/05/10 08:36:37;;;;;;;7.50;6.80;;;13.90;99.90;;;;;;4810346;29;20236;-55
2023/05/10 08:39:05;;;;;;;7.27;6.57;;;13.80;99.90;;;;;;4807730;29;20262;-53
2023/05/10 08:41:46;;;;;;;8.20;7.10;;;13.80;99.90;;;;;;4809708;29;20781;-54
2023/05/10 08:44:16;;;;;;;7.87;7.13;;;13.80;99.90;;;;;;4810694;29;20839;-53
2023/05/10 08:46:47;;;;;;;7.30;6.60;;;13.80;99.90;;;;;;4812466;29;20255;-52
2023/05/10 08:49:18;;;;;;;9.30;7.20;;;13.80;99.90;;;;;;4813544;29;20236;-54
2023/05/10 08:51:53;;;;;;;8.20;7.40;;;13.80;99.90;;;;;;4814842;29;20628;-52
2023/05/10 08:54:22;;;;;;;8.97;7.40;;;13.80;99.90;;;;;;4815090;29;20670;-54
2023/05/10 08:56:51;;;;;;;8.23;7.20;;;13.70;99.90;;;;;;4814761;29;20244;-54
2023/05/10 08:59:19;;;;;;;8.53;7.40;;;13.80;99.90;;;;;;4812903;29;20736;-52
2023/05/10 09:01:49;;;;;;;8.00;7.20;;;13.80;99.90;;;;;;4812412;29;20243;-54
2023/05/10 09:04:17;;;;;;;9.60;7.73;;;13.70;99.90;;;;;;4812831;29;20814;-51
2023/05/10 09:06:46;;;;;;;8.63;7.73;;;13.70;99.90;;;;;;4809556;29;20808;-53
2023/05/10 09:09:15;;;;;;;8.87;7.97;;;13.50;99.90;;;;;;4807325;29;20708;-55
2023/05/10 09:11:44;;;;;;;8.70;7.80;;;13.60;99.90;;;;;;4811783;29;20904;-53
2023/05/10 09:14:15;;;;;;;9.20;7.73;;;13.60;99.90;;;;;;4811731;29;20248;-55
2023/05/10 09:16:44;;;;;;;8.47;7.67;;;13.60;99.90;;;;;;4812016;29;20254;-54
2023/05/10 09:19:12;;;;;;;8.17;7.37;;;13.60;99.90;;;;;;4810468;29;20239;-53
2023/05/10 09:21:40;;;;;;;8.50;7.70;;;13.60;99.90;;;;;;4811284;29;20338;-54
2023/05/10 09:24:09;;;;;;;8.43;6.93;;;13.60;99.90;;;;;;4812277;29;20247;-54
2023/05/10 09:26:47;;;;;;;8.20;7.37;;;13.60;99.90;;;;;;4811995;29;20738;-54
2023/05/10 09:29:17;;;;;;;8.33;7.47;;;13.60;99.90;;;;;;4810201;29;20715;-55
2023/05/10 09:31:47;;;;;;;8.30;7.50;;;13.60;99.90;;;;;;4810174;29;20300;-55
2023/05/10 09:34:21;;;;;;;8.57;7.77;;;13.60;99.90;;;;;;4812229;29;20254;-53
2023/05/10 09:36:54;;;;;;;9.10;7.47;;;13.60;99.90;;;;;;4811701;29;20236;-52
2023/05/10 09:39:30;;;;;;;8.53;7.60;;;13.60;99.90;;;;;;4808032;29;20250;-52
2023/05/10 09:41:59;;;;;;;11.23;8.33;;;13.60;99.90;;;;;;4811445;29;20244;-55
2023/05/10 09:44:28;;;;;;;10.27;8.13;;;13.60;99.90;;;;;;4811649;29;20251;-55
2023/05/10 09:46:56;;;;;;;8.73;7.83;;;13.60;99.90;;;;;;4811760;29;20238;-54
2023/05/10 09:49:25;;;;;;;10.50;8.30;;;13.60;99.90;;;;;;4808531;29;20279;-53
2023/05/10 09:52:02;;;;;;;8.67;7.87;;;13.60;99.90;;;;;;4810956;29;20248;-54
2023/05/10 09:54:31;;;;;;;8.80;7.90;;;13.60;99.90;;;;;;4811249;29;20658;-52
2023/05/10 09:56:59;;;;;;;8.80;7.70;;;13.70;99.90;;;;;;4810798;29;20235;-55
2023/05/10 09:59:30;;;;;;;10.60;8.17;;;13.70;99.90;;;;;;4807692;29;20247;-55
2023/05/10 10:01:59;;;;;;;8.93;8.03;;;13.70;99.90;;;;;;4810023;29;20608;-54
2023/05/10 10:04:29;;;;;;;8.77;7.90;;;13.60;99.90;;;;;;4811352;29;20236;-53
2023/05/10 10:07:01;;;;;;;11.17;7.90;;;13.70;99.90;;;;;;4811879;29;20776;-54
2023/05/10 10:09:30;;;;;;;8.50;7.70;;;13.80;99.90;;;;;;4807514;29;20577;-53
2023/05/10 10:11:58;;;;;;;9.03;8.13;;;13.80;99.90;;;;;;4810608;29;20597;-53
2023/05/10 10:14:29;;;;;;;8.70;7.90;;;13.80;99.90;;;;;;4810845;29;20317;-55
2023/05/10 10:16:57;;;;;;;9.03;8.13;;;13.80;99.90;;;;;;4811914;29;20247;-54
2023/05/10 10:19:36;;;;;;;9.23;8.33;;;13.80;99.90;;;;;;4807982;29;20628;-54
2023/05/10 10:22:05;;;;;;;9.13;8.23;;;13.80;99.90;;;;;;4810493;29;20824;-54
2023/05/10 10:24:34;;;;;;;9.90;8.97;;;13.80;99.90;;;;;;4811410;29;20765;-53
2023/05/10 10:27:13;;;;;;;10.07;8.40;;;13.80;99.90;;;;;;4811010;29;20244;-54
2023/05/10 10:29:53;;;;;;;9.57;8.73;;;13.80;99.90;;;;;;4807419;29;21026;-54
2023/05/10 10:32:28;;;;;;;9.37;8.53;;;13.90;99.90;;;;;;4809363;29;21237;-52
2023/05/10 10:34:57;;;;;;;10.17;9.27;;;14.00;99.90;;;;;;4811405;29;20240;-54
2023/05/10 10:37:43;;;;;;;9.83;8.87;;;14.00;99.90;;;;;;4810846;29;20248;-50
2023/05/10 10:40:26;;;;;;;9.43;8.63;;;14.00;99.90;;;;;;4808264;29;20716;-53
2023/05/10 10:42:54;;;;;;;8.93;8.03;;;14.00;99.90;;;;;;4810657;29;20242;-53
2023/05/10 10:45:26;;;;;;;9.67;8.80;;;14.00;99.90;;;;;;4810886;29;20611;-54
2023/05/10 10:48:22;;;;;;;10.13;9.23;;;14.00;99.90;;;;;;4810817;29;20327;-52
2023/05/10 10:50:58;;;;;;;10.57;9.60;;;14.10;99.90;;;;;;4810028;29;20239;-55
2023/05/10 10:53:28;;;;;;;8.93;8.03;;;14.20;99.90;;;;;;4810900;29;20604;-54
2023/05/10 10:56:07;;;;;;;10.60;9.00;;;14.40;99.90;;;;;;4810967;29;20232;-54
2023/05/10 10:58:36;;;;;;;10.03;9.00;;;14.50;99.90;;;;;;4808131;29;20235;-53
2023/05/10 11:01:13;;;;;;;8.90;8.10;;;14.70;99.90;;;;;;4808969;29;20255;-55
2023/05/10 11:03:42;;;;;;;9.23;8.40;;;14.80;99.90;;;;;;4810972;29;20783;-54
2023/05/10 11:06:11;;;;;;;9.60;8.33;;;14.80;99.90;;;;;;4810682;29;20240;-54
2023/05/10 11:08:47;;;;;;;8.50;7.80;;;14.80;99.90;;;;;;4808084;29;20244;-54
2023/05/10 11:11:16;;;;;;;8.90;8.17;;;14.80;99.90;;;;;;4810061;29;20246;-54
2023/05/10 11:13:45;;;;;;;9.23;8.43;;;14.80;99.90;;;;;;4810184;29;20244;-53
2023/05/10 11:16:20;;;;;;;9.80;8.97;;;14.80;99.90;;;;;;4810089;29;20238;-54
2023/05/10 11:19:01;;;;;;;10.23;9.33;;;14.90;99.90;;;;;;4806689;29;20228;-54
2023/05/10 11:21:30;;;;;;;8.80;8.00;;;14.90;99.90;;;;;;4807871;29;20252;-52
2023/05/10 11:23:59;;;;;;;8.07;7.27;;;15.00;99.90;;;;;;4810809;29;20243;-54
2023/05/10 11:26:32;;;;;;;10.37;9.47;;;15.00;99.90;;;;;;4813347;29;20233;-54
2023/05/10 11:29:02;;;;;;;9.87;9.00;;;15.00;99.90;;;;;;4812641;29;21017;-55
2023/05/10 11:31:31;;;;;;;9.10;8.30;;;15.00;99.90;;;;;;4815942;29;20244;-54
2023/05/10 11:34:01;;;;;;;9.43;8.63;;;15.10;99.90;;;;;;4817800;29;20235;-55
2023/05/10 11:36:35;;;;;;;11.93;10.87;;;15.10;99.90;;;;;;4816687;29;20303;-54
2023/05/10 11:39:05;;;;;;;10.20;9.30;;;15.20;99.90;;;;;;4815380;29;20243;-55
2023/05/10 11:41:33;;;;;;;10.27;9.30;;;15.20;99.90;;;;;;4816300;29;20330;-55
2023/05/10 11:44:02;;;;;;;11.17;10.27;;;15.40;99.90;;;;;;4817519;29;20273;-54
2023/05/10 11:46:32;;;;;;;9.83;8.97;;;15.50;99.90;;;;;;4816721;29;20739;-55
2023/05/10 11:49:03;;;;;;;10.77;9.77;;;15.60;99.90;;;;;;4813423;29;20319;-55
2023/05/10 11:51:35;;;;;;;9.43;8.63;;;15.60;99.90;;;;;;4809263;29;20649;-54
2023/05/10 11:54:08;;;;;;;10.77;9.87;;;15.60;99.90;;;;;;4812905;29;20670;-54
2023/05/10 11:56:36;;;;;;;10.03;9.13;;;15.70;99.90;;;;;;4811638;29;20243;-55
2023/05/10 11:59:05;;;;;;;10.43;9.57;;;15.80;99.90;;;;;;4809500;29;20259;-53
2023/05/10 12:01:35;;;;;;;10.50;9.50;;;15.90;99.90;;;;;;4810230;29;20250;-54
2023/05/10 12:04:04;;;;;;;11.30;10.30;;;15.90;99.90;;;;;;4812297;29;20863;-54
2023/05/10 12:06:35;;;;;;;11.20;10.20;;;15.80;99.90;;;;;;4811707;29;20248;-55
2023/05/10 12:09:07;;;;;;;11.20;10.30;;;15.80;99.90;;;;;;4809178;29;20244;-55
2023/05/10 12:11:38;;;;;;;10.63;9.73;;;15.80;99.90;;;;;;4811123;29;20240;-54
2023/05/10 12:14:11;;;;;;;11.70;10.70;;;15.80;99.90;;;;;;4812803;29;21458;-54
2023/05/10 12:16:41;;;;;;;10.83;9.83;;;15.80;99.90;;;;;;4810712;29;20236;-54
2023/05/10 12:19:09;;;;;;;11.00;10.00;;;15.90;99.90;;;;;;4814531;29;20840;-54
2023/05/10 12:21:38;;;;;;;11.23;10.33;;;16.00;99.90;;;;;;4814719;29;20288;-54
2023/05/10 12:24:08;;;;;;;11.53;10.57;;;16.30;99.90;;;;;;4815697;29;21035;-54
2023/05/10 12:26:36;;;;;;;11.60;10.63;;;16.40;99.90;;;;;;4815680;29;20244;-55
2023/05/10 12:29:15;;;;;;;10.40;9.40;;;16.60;99.90;;;;;;4814386;29;20811;-55
2023/05/10 12:31:56;;;;;;;11.07;9.97;;;16.60;99.90;;;;;;4812243;29;20781;-53
2023/05/10 12:34:26;;;;;;;10.00;9.10;;;16.70;99.90;;;;;;4813080;29;20760;-54
2023/05/10 12:36:54;;;;;;;10.30;9.40;;;16.60;99.90;;;;;;4810512;29;20715;-55
2023/05/10 12:39:22;;;;;;;10.53;9.63;;;16.50;99.90;;;;;;4809115;29;20248;-55
2023/05/10 12:41:50;;;;;;;10.70;9.70;;;16.60;99.90;;;;;;4811179;29;20698;-54
2023/05/10 12:44:19;;;;;;;9.80;9.00;;;16.60;99.90;;;;;;4815418;29;20330;-53
2023/05/10 12:46:47;;;;;;;10.27;9.40;;;16.70;99.90;;;;;;4813349;29;20285;-54
2023/05/10 12:49:18;;;;;;;10.27;9.47;;;16.80;99.90;;;;;;4807106;29;20232;-53
2023/05/10 12:51:46;;;;;;;10.57;9.50;;;17.00;99.90;;;;;;4808909;29;20643;-53
2023/05/10 12:54:14;;;;;;;10.37;9.30;;;17.10;99.90;;;;;;4811625;29;20716;-51
2023/05/10 12:56:43;;;;;;;10.17;9.37;;;17.10;99.90;;;;;;4812224;29;20274;-54
2023/05/10 12:59:11;;;;;;;10.10;9.17;;;17.00;99.90;;;;;;4810290;29;20240;-54
2023/05/10 13:01:40;;;;;;;11.80;10.60;;;17.00;99.90;;;;;;4810925;29;20248;-55